sensor_id;sensor_type;location;lat;lon;timestamp;pressure;altitude;pressure_sealevel;temperature;humidity
19112;BME280;9688;51.906;8.376;2022-09-27T00:01:00;98515.28;;;12.17;99.00
19112;BME280;9688;51.906;8.376;2022-09-27T00:04:06;98509.28;;;12.15;98.75
19112;BME280;9688;51.906;8.376;2022-09-27T00:07:11;98508.19;;;12.18;98.73
19112;BME280;9688;51.906;8.376;2022-09-27T00:10:16;98512.75;;;12.16;99.22
19112;BME280;9688;51.906;8.376;2022-09-27T00:13:21;98508.91;;;12.20;98.65
19112;BME280;9688;51.906;8.376;2022-09-27T00:16:28;98507.94;;;12.21;98.87
19112;BME280;9688;51.906;8.376;2022-09-27T00:19:34;98511.69;;;12.18;99.12
19112;BME280;9688;51.906;8.376;2022-09-27T00:22:39;98510.09;;;12.16;98.92
19112;BME280;9688;51.906;8.376;2022-09-27T00:25:53;98512.75;;;12.16;99.25
19112;BME280;9688;51.906;8.376;2022-09-27T00:28:58;98510.00;;;12.17;99.07
19112;BME280;9688;51.906;8.376;2022-09-27T00:32:02;98513.97;;;12.23;99.52
19112;BME280;9688;51.906;8.376;2022-09-27T00:35:09;98506.84;;;12.23;99.21
19112;BME280;9688;51.906;8.376;2022-09-27T00:38:13;98508.66;;;12.23;99.67
19112;BME280;9688;51.906;8.376;2022-09-27T00:41:21;98504.94;;;12.25;99.27
19112;BME280;9688;51.906;8.376;2022-09-27T00:48:10;98507.22;;;12.19;99.53
19112;BME280;9688;51.906;8.376;2022-09-27T00:51:18;98507.22;;;12.19;100.00
19112;BME280;9688;51.906;8.376;2022-09-27T00:54:25;98506.84;;;12.23;99.61
19112;BME280;9688;51.906;8.376;2022-09-27T00:57:30;98505.03;;;12.24;99.85
19112;BME280;9688;51.906;8.376;2022-09-27T01:00:36;98502.41;;;12.24;100.00
19112;BME280;9688;51.906;8.376;2022-09-27T01:03:45;98501.31;;;12.26;100.00
19112;BME280;9688;51.906;8.376;2022-09-27T01:06:54;98503.72;;;12.30;100.00
19112;BME280;9688;51.906;8.376;2022-09-27T01:09:59;98509.00;;;12.30;100.00
19112;BME280;9688;51.906;8.376;2022-09-27T01:13:12;98509.25;;;12.26;100.00
19112;BME280;9688;51.906;8.376;2022-09-27T01:16:26;98509.41;;;12.25;100.00
19112;BME280;9688;51.906;8.376;2022-09-27T01:23:33;98503.97;;;12.15;100.00
19112;BME280;9688;51.906;8.376;2022-09-27T01:27:05;98509.75;;;12.09;100.00
19112;BME280;9688;51.906;8.376;2022-09-27T01:30:19;98506.53;;;12.05;100.00
19112;BME280;9688;51.906;8.376;2022-09-27T01:33:41;98515.78;;;12.00;100.00
19112;BME280;9688;51.906;8.376;2022-09-27T01:36:52;98520.34;;;11.98;100.00
19112;BME280;9688;51.906;8.376;2022-09-27T01:40:06;98521.53;;;11.94;100.00
19112;BME280;9688;51.906;8.376;2022-09-27T01:43:16;98527.22;;;11.89;100.00
19112;BME280;9688;51.906;8.376;2022-09-27T01:46:26;98522.03;;;11.88;100.00
19112;BME280;9688;51.906;8.376;2022-09-27T01:49:39;98527.44;;;11.86;100.00
19112;BME280;9688;51.906;8.376;2022-09-27T01:52:48;98531.25;;;11.82;100.00
19112;BME280;9688;51.906;8.376;2022-09-27T01:55:54;98527.28;;;11.76;100.00
19112;BME280;9688;51.906;8.376;2022-09-27T01:59:03;98524.63;;;11.76;100.00
19112;BME280;9688;51.906;8.376;2022-09-27T02:02:15;98535.31;;;11.75;100.00
19112;BME280;9688;51.906;8.376;2022-09-27T02:05:24;98528.59;;;11.71;100.00
19112;BME280;9688;51.906;8.376;2022-09-27T02:08:35;98536.63;;;11.69;100.00
19112;BME280;9688;51.906;8.376;2022-09-27T02:11:46;98533.97;;;11.69;100.00
19112;BME280;9688;51.906;8.376;2022-09-27T02:14:54;98539.19;;;11.71;100.00
19112;BME280;9688;51.906;8.376;2022-09-27T02:18:11;98534.72;;;11.71;100.00
19112;BME280;9688;51.906;8.376;2022-09-27T02:21:24;98538.09;;;11.73;100.00
19112;BME280;9688;51.906;8.376;2022-09-27T02:24:36;98541.72;;;11.72;100.00
19112;BME280;9688;51.906;8.376;2022-09-27T02:27:51;98536.53;;;11.71;100.00
19112;BME280;9688;51.906;8.376;2022-09-27T02:30:59;98537.38;;;11.71;100.00
19112;BME280;9688;51.906;8.376;2022-09-27T02:34:08;98543.41;;;11.73;100.00
19112;BME280;9688;51.906;8.376;2022-09-27T02:37:15;98547.22;;;11.69;100.00
19112;BME280;9688;51.906;8.376;2022-09-27T02:40:20;98547.13;;;11.71;100.00
19112;BME280;9688;51.906;8.376;2022-09-27T02:43:28;98552.16;;;11.74;100.00
19112;BME280;9688;51.906;8.376;2022-09-27T02:46:50;98557.59;;;11.72;100.00
19112;BME280;9688;51.906;8.376;2022-09-27T02:50:26;98553.25;;;11.71;100.00
19112;BME280;9688;51.906;8.376;2022-09-27T02:53:44;98558.69;;;11.70;100.00
19112;BME280;9688;51.906;8.376;2022-09-27T02:57:01;98563.59;;;11.74;100.00
19112;BME280;9688;51.906;8.376;2022-09-27T03:00:15;98557.38;;;11.75;100.00
19112;BME280;9688;51.906;8.376;2022-09-27T03:03:26;98558.78;;;11.68;100.00
19112;BME280;9688;51.906;8.376;2022-09-27T03:06:35;98556.59;;;11.62;100.00
19112;BME280;9688;51.906;8.376;2022-09-27T03:09:43;98559.25;;;11.62;100.00
19112;BME280;9688;51.906;8.376;2022-09-27T03:12:48;98559.59;;;11.57;100.00
19112;BME280;9688;51.906;8.376;2022-09-27T03:15:53;98559.59;;;11.57;100.00
19112;BME280;9688;51.906;8.376;2022-09-27T03:18:57;98564.50;;;11.51;100.00
19112;BME280;9688;51.906;8.376;2022-09-27T03:22:03;98564.50;;;11.51;100.00
19112;BME280;9688;51.906;8.376;2022-09-27T03:25:08;98571.25;;;11.55;100.00
19112;BME280;9688;51.906;8.376;2022-09-27T03:28:13;98563.53;;;11.52;100.00
19112;BME280;9688;51.906;8.376;2022-09-27T03:31:19;98571.25;;;11.55;100.00
19112;BME280;9688;51.906;8.376;2022-09-27T03:34:23;98573.91;;;11.55;100.00
19112;BME280;9688;51.906;8.376;2022-09-27T03:37:29;98580.16;;;11.54;100.00
19112;BME280;9688;51.906;8.376;2022-09-27T03:40:34;98577.50;;;11.54;100.00
19112;BME280;9688;51.906;8.376;2022-09-27T03:43:39;98586.19;;;11.56;100.00
19112;BME280;9688;51.906;8.376;2022-09-27T03:46:44;98587.97;;;11.55;100.00
19112;BME280;9688;51.906;8.376;2022-09-27T03:49:49;98584.25;;;11.58;100.00
19112;BME280;9688;51.906;8.376;2022-09-27T03:52:55;98596.31;;;11.62;100.00
19112;BME280;9688;51.906;8.376;2022-09-27T03:56:00;98585.81;;;11.60;100.00
19112;BME280;9688;51.906;8.376;2022-09-27T03:59:05;98591.94;;;11.61;100.00
19112;BME280;9688;51.906;8.376;2022-09-27T04:02:09;98591.94;;;11.61;100.00
19112;BME280;9688;51.906;8.376;2022-09-27T04:05:14;98589.44;;;11.59;100.00
19112;BME280;9688;51.906;8.376;2022-09-27T04:08:21;98587.13;;;11.55;100.00
19112;BME280;9688;51.906;8.376;2022-09-27T04:11:26;98591.34;;;11.57;100.00
19112;BME280;9688;51.906;8.376;2022-09-27T04:14:30;98593.88;;;11.59;100.00
19112;BME280;9688;51.906;8.376;2022-09-27T04:17:35;98597.38;;;11.59;100.00
19112;BME280;9688;51.906;8.376;2022-09-27T04:20:39;98591.94;;;11.61;100.00
19112;BME280;9688;51.906;8.376;2022-09-27T04:23:45;98598.22;;;11.60;100.00
19112;BME280;9688;51.906;8.376;2022-09-27T04:26:50;98599.19;;;11.59;100.00
19112;BME280;9688;51.906;8.376;2022-09-27T04:29:54;98601.94;;;11.57;100.00
19112;BME280;9688;51.906;8.376;2022-09-27T04:32:59;98605.56;;;11.56;100.00
19112;BME280;9688;51.906;8.376;2022-09-27T04:36:04;98603.22;;;11.52;100.00
19112;BME280;9688;51.906;8.376;2022-09-27T04:39:27;98603.56;;;11.47;100.00
19112;BME280;9688;51.906;8.376;2022-09-27T04:42:32;98607.09;;;11.48;99.74
19112;BME280;9688;51.906;8.376;2022-09-27T04:45:36;98608.75;;;11.49;99.91
19112;BME280;9688;51.906;8.376;2022-09-27T04:48:41;98618.75;;;11.45;99.53
19112;BME280;9688;51.906;8.376;2022-09-27T04:51:45;98611.88;;;11.43;100.00
19112;BME280;9688;51.906;8.376;2022-09-27T04:54:52;98620.53;;;11.45;99.62
19112;BME280;9688;51.906;8.376;2022-09-27T04:57:57;98616.31;;;11.42;100.00
19112;BME280;9688;51.906;8.376;2022-09-27T05:01:04;98619.81;;;11.43;100.00
19112;BME280;9688;51.906;8.376;2022-09-27T05:04:09;98631.97;;;11.45;99.11
19112;BME280;9688;51.906;8.376;2022-09-27T05:07:13;98637.13;;;11.47;99.55
19112;BME280;9688;51.906;8.376;2022-09-27T05:10:19;98640.00;;;11.44;99.90
19112;BME280;9688;51.906;8.376;2022-09-27T05:13:24;98634.84;;;11.42;99.31
19112;BME280;9688;51.906;8.376;2022-09-27T05:16:29;98643.09;;;11.37;99.45
19112;BME280;9688;51.906;8.376;2022-09-27T05:19:34;98648.63;;;11.34;99.38
19112;BME280;9688;51.906;8.376;2022-09-27T05:22:41;98652.00;;;11.36;99.57
19112;BME280;9688;51.906;8.376;2022-09-27T05:25:47;98654.66;;;11.36;100.00
19112;BME280;9688;51.906;8.376;2022-09-27T05:28:52;98656.44;;;11.36;99.78
19112;BME280;9688;51.906;8.376;2022-09-27T05:31:56;98661.94;;;11.33;99.45
19112;BME280;9688;51.906;8.376;2022-09-27T05:35:01;98657.72;;;11.30;99.69
19112;BME280;9688;51.906;8.376;2022-09-27T05:38:07;98673.59;;;11.30;99.63
19112;BME280;9688;51.906;8.376;2022-09-27T05:41:13;98667.97;;;11.35;99.00
19112;BME280;9688;51.906;8.376;2022-09-27T05:44:18;98672.75;;;11.30;99.31
19112;BME280;9688;51.906;8.376;2022-09-27T05:47:36;98678.41;;;11.25;99.39
19112;BME280;9688;51.906;8.376;2022-09-27T05:50:40;98674.56;;;11.29;99.43
19112;BME280;9688;51.906;8.376;2022-09-27T05:53:45;98688.53;;;11.31;99.34
19112;BME280;9688;51.906;8.376;2022-09-27T05:56:54;98684.19;;;11.30;99.45
19112;BME280;9688;51.906;8.376;2022-09-27T06:00:05;98691.28;;;11.30;98.68
19112;BME280;9688;51.906;8.376;2022-09-27T06:03:11;98693.00;;;11.31;98.61
19112;BME280;9688;51.906;8.376;2022-09-27T06:06:16;98694.66;;;11.32;99.48
19112;BME280;9688;51.906;8.376;2022-09-27T06:09:21;98694.75;;;11.30;99.13
19112;BME280;9688;51.906;8.376;2022-09-27T06:12:27;98696.34;;;11.33;98.18
19112;BME280;9688;51.906;8.376;2022-09-27T06:15:35;98703.34;;;11.34;99.24
19112;BME280;9688;51.906;8.376;2022-09-27T06:18:41;98707.88;;;11.32;98.47
19112;BME280;9688;51.906;8.376;2022-09-27T06:21:48;98703.16;;;11.24;98.16
19112;BME280;9688;51.906;8.376;2022-09-27T06:24:52;98711.09;;;11.24;98.95
19112;BME280;9688;51.906;8.376;2022-09-27T06:27:58;98715.44;;;11.25;98.14
19112;BME280;9688;51.906;8.376;2022-09-27T06:31:05;98719.00;;;11.24;97.54
19112;BME280;9688;51.906;8.376;2022-09-27T06:34:10;98735.94;;;11.22;98.09
19112;BME280;9688;51.906;8.376;2022-09-27T06:37:14;98730.13;;;11.16;98.21
19112;BME280;9688;51.906;8.376;2022-09-27T06:40:19;98733.84;;;11.14;98.39
19112;BME280;9688;51.906;8.376;2022-09-27T06:43:27;98727.41;;;11.05;97.79
19112;BME280;9688;51.906;8.376;2022-09-27T06:46:34;98731.25;;;11.01;97.06
19112;BME280;9688;51.906;8.376;2022-09-27T06:49:40;98747.84;;;11.03;97.86
19112;BME280;9688;51.906;8.376;2022-09-27T06:52:48;98737.59;;;11.11;97.88
19112;BME280;9688;51.906;8.376;2022-09-27T06:55:57;98741.47;;;11.19;97.25
19112;BME280;9688;51.906;8.376;2022-09-27T06:59:06;98741.75;;;11.27;97.43
19112;BME280;9688;51.906;8.376;2022-09-27T07:02:29;98740.25;;;11.35;96.32
19112;BME280;9688;51.906;8.376;2022-09-27T07:05:34;98744.53;;;11.49;96.10
19112;BME280;9688;51.906;8.376;2022-09-27T07:08:38;98750.66;;;11.63;96.61
19112;BME280;9688;51.906;8.376;2022-09-27T07:11:43;98759.25;;;11.77;96.28
19112;BME280;9688;51.906;8.376;2022-09-27T07:14:50;98753.72;;;11.80;95.63
19112;BME280;9688;51.906;8.376;2022-09-27T07:17:55;98766.13;;;11.80;95.61
19112;BME280;9688;51.906;8.376;2022-09-27T07:21:01;98771.09;;;11.84;95.90
19112;BME280;9688;51.906;8.376;2022-09-27T07:24:06;98771.28;;;11.94;95.75
19112;BME280;9688;51.906;8.376;2022-09-27T07:27:11;98773.50;;;12.00;95.26
19112;BME280;9688;51.906;8.376;2022-09-27T07:30:18;98773.88;;;12.07;95.55
19112;BME280;9688;51.906;8.376;2022-09-27T07:33:23;98774.31;;;12.25;94.93
19112;BME280;9688;51.906;8.376;2022-09-27T07:36:30;98779.03;;;12.33;94.59
19112;BME280;9688;51.906;8.376;2022-09-27T07:39:35;98790.59;;;12.32;94.63
19112;BME280;9688;51.906;8.376;2022-09-27T07:42:41;98786.47;;;12.27;95.08
19112;BME280;9688;51.906;8.376;2022-09-27T07:45:47;98792.00;;;12.24;94.88
19112;BME280;9688;51.906;8.376;2022-09-27T07:48:52;98794.53;;;12.26;94.70
19112;BME280;9688;51.906;8.376;2022-09-27T07:51:57;98801.41;;;12.28;94.74
19112;BME280;9688;51.906;8.376;2022-09-27T07:55:02;98797.34;;;12.36;94.11
19112;BME280;9688;51.906;8.376;2022-09-27T07:58:08;98788.06;;;12.41;93.42
19112;BME280;9688;51.906;8.376;2022-09-27T08:01:15;98808.44;;;12.41;93.64
19112;BME280;9688;51.906;8.376;2022-09-27T08:04:19;98809.44;;;12.51;92.95
19112;BME280;9688;51.906;8.376;2022-09-27T08:07:24;98820.66;;;12.55;93.23
19112;BME280;9688;51.906;8.376;2022-09-27T08:10:30;98817.66;;;12.59;92.56
19112;BME280;9688;51.906;8.376;2022-09-27T08:13:35;98812.63;;;12.67;92.39
19112;BME280;9688;51.906;8.376;2022-09-27T08:16:45;98815.91;;;12.82;91.88
19112;BME280;9688;51.906;8.376;2022-09-27T08:19:51;98820.47;;;12.80;92.04
19112;BME280;9688;51.906;8.376;2022-09-27T08:22:57;98823.84;;;12.82;92.02
19112;BME280;9688;51.906;8.376;2022-09-27T08:26:02;98833.13;;;12.88;91.46
19112;BME280;9688;51.906;8.376;2022-09-27T08:29:06;98839.19;;;12.90;90.89
19112;BME280;9688;51.906;8.376;2022-09-27T08:32:13;98841.13;;;12.99;90.56
19112;BME280;9688;51.906;8.376;2022-09-27T08:35:18;98849.81;;;13.12;90.31
19112;BME280;9688;51.906;8.376;2022-09-27T08:38:24;98836.97;;;13.30;89.36
19112;BME280;9688;51.906;8.376;2022-09-27T08:41:34;98854.81;;;13.28;89.04
19112;BME280;9688;51.906;8.376;2022-09-27T08:44:46;98850.81;;;13.23;88.54
19112;BME280;9688;51.906;8.376;2022-09-27T08:47:58;98857.44;;;13.17;88.51
19112;BME280;9688;51.906;8.376;2022-09-27T08:51:06;98843.13;;;13.31;88.09
19112;BME280;9688;51.906;8.376;2022-09-27T08:54:19;98846.25;;;13.47;87.53
19112;BME280;9688;51.906;8.376;2022-09-27T08:57:27;98856.50;;;13.52;87.03
19112;BME280;9688;51.906;8.376;2022-09-27T09:00:32;98856.16;;;13.45;86.99
19112;BME280;9688;51.906;8.376;2022-09-27T09:03:43;98866.28;;;13.51;86.75
19112;BME280;9688;51.906;8.376;2022-09-27T09:06:56;98863.00;;;13.70;85.99
19112;BME280;9688;51.906;8.376;2022-09-27T09:10:18;98861.88;;;13.95;84.91
19112;BME280;9688;51.906;8.376;2022-09-27T09:17:54;98866.09;;;14.09;83.77
19112;BME280;9688;51.906;8.376;2022-09-27T09:22:02;98871.97;;;14.13;83.78
19112;BME280;9688;51.906;8.376;2022-09-27T09:25:22;98866.63;;;14.24;83.10
19112;BME280;9688;51.906;8.376;2022-09-27T09:28:43;98864.56;;;14.39;82.41
19112;BME280;9688;51.906;8.376;2022-09-27T09:31:58;98868.00;;;14.50;82.17
19112;BME280;9688;51.906;8.376;2022-09-27T09:35:10;98863.13;;;14.67;80.91
19112;BME280;9688;51.906;8.376;2022-09-27T09:38:23;98849.19;;;14.75;80.25
19112;BME280;9688;51.906;8.376;2022-09-27T09:41:35;98857.19;;;14.75;79.74
19112;BME280;9688;51.906;8.376;2022-09-27T09:44:51;98861.50;;;14.76;79.65
19112;BME280;9688;51.906;8.376;2022-09-27T09:48:08;98853.59;;;14.64;79.54
19112;BME280;9688;51.906;8.376;2022-09-27T09:51:25;98857.88;;;14.56;79.61
19112;BME280;9688;51.906;8.376;2022-09-27T09:54:36;98838.81;;;14.71;79.71
19112;BME280;9688;51.906;8.376;2022-09-27T09:58:00;98833.03;;;14.87;79.01
19112;BME280;9688;51.906;8.376;2022-09-27T10:01:13;98840.47;;;14.93;78.60
19112;BME280;9688;51.906;8.376;2022-09-27T10:04:23;98835.03;;;14.95;78.26
19112;BME280;9688;51.906;8.376;2022-09-27T10:07:28;98834.19;;;14.94;77.63
19112;BME280;9688;51.906;8.376;2022-09-27T10:10:35;98832.84;;;15.00;77.52
19112;BME280;9688;51.906;8.376;2022-09-27T10:13:40;98840.63;;;14.92;77.57
19112;BME280;9688;51.906;8.376;2022-09-27T10:16:47;98834.38;;;14.82;77.39
19112;BME280;9688;51.906;8.376;2022-09-27T10:19:52;98841.50;;;14.60;78.16
19112;BME280;9688;51.906;8.376;2022-09-27T10:23:05;98837.72;;;14.42;78.31
19112;BME280;9688;51.906;8.376;2022-09-27T10:26:17;98844.78;;;14.20;79.55
19112;BME280;9688;51.906;8.376;2022-09-27T10:29:28;98848.13;;;13.90;81.15
19112;BME280;9688;51.906;8.376;2022-09-27T10:32:35;98842.75;;;13.69;81.72
19112;BME280;9688;51.906;8.376;2022-09-27T10:35:42;98844.44;;;13.48;82.67
19112;BME280;9688;51.906;8.376;2022-09-27T10:38:51;98845.88;;;13.41;82.68
19112;BME280;9688;51.906;8.376;2022-09-27T10:41:57;98846.03;;;13.50;82.99
19112;BME280;9688;51.906;8.376;2022-09-27T10:45:26;98842.84;;;13.79;82.97
19112;BME280;9688;51.906;8.376;2022-09-27T10:48:33;98837.22;;;14.04;82.35
19112;BME280;9688;51.906;8.376;2022-09-27T10:51:39;98848.06;;;14.13;81.54
19112;BME280;9688;51.906;8.376;2022-09-27T10:54:52;98843.63;;;14.02;81.30
19112;BME280;9688;51.906;8.376;2022-09-27T10:57:59;98838.78;;;14.07;80.86
19112;BME280;9688;51.906;8.376;2022-09-27T11:01:06;98843.63;;;14.02;81.15
19112;BME280;9688;51.906;8.376;2022-09-27T11:04:19;98841.69;;;14.04;81.02
19112;BME280;9688;51.906;8.376;2022-09-27T11:07:24;98841.66;;;14.15;80.59
19112;BME280;9688;51.906;8.376;2022-09-27T11:10:32;98843.09;;;14.51;80.34
19112;BME280;9688;51.906;8.376;2022-09-27T11:13:40;98834.97;;;14.85;78.90
19112;BME280;9688;51.906;8.376;2022-09-27T11:17:06;98839.94;;;15.21;77.84
19112;BME280;9688;51.906;8.376;2022-09-27T11:20:27;98835.31;;;15.23;77.66
19112;BME280;9688;51.906;8.376;2022-09-27T11:23:55;98843.75;;;14.97;78.03
19112;BME280;9688;51.906;8.376;2022-09-27T11:27:17;98854.56;;;14.63;78.83
19112;BME280;9688;51.906;8.376;2022-09-27T11:30:30;98849.97;;;14.33;79.69
19112;BME280;9688;51.906;8.376;2022-09-27T11:34:18;98855.00;;;13.93;81.01
19112;BME280;9688;51.906;8.376;2022-09-27T11:37:35;98867.22;;;13.84;81.05
19112;BME280;9688;51.906;8.376;2022-09-27T11:40:56;98861.31;;;13.92;80.76
19112;BME280;9688;51.906;8.376;2022-09-27T11:44:25;98865.28;;;13.97;80.59
19112;BME280;9688;51.906;8.376;2022-09-27T11:47:43;98856.81;;;13.92;80.33
19112;BME280;9688;51.906;8.376;2022-09-27T11:51:00;98860.47;;;13.91;80.33
19112;BME280;9688;51.906;8.376;2022-09-27T11:54:24;98853.19;;;13.93;80.21
19112;BME280;9688;51.906;8.376;2022-09-27T11:57:35;98856.56;;;13.95;80.39
19112;BME280;9688;51.906;8.376;2022-09-27T12:00:52;98861.88;;;13.95;80.32
19112;BME280;9688;51.906;8.376;2022-09-27T12:07:46;98866.50;;;13.82;80.76
19112;BME280;9688;51.906;8.376;2022-09-27T12:11:02;98852.97;;;13.74;81.21
19112;BME280;9688;51.906;8.376;2022-09-27T12:14:14;98859.88;;;13.76;81.31
19112;BME280;9688;51.906;8.376;2022-09-27T12:17:22;98858.28;;;13.74;81.78
19112;BME280;9688;51.906;8.376;2022-09-27T12:20:31;98847.09;;;13.70;82.07
19112;BME280;9688;51.906;8.376;2022-09-27T12:23:42;98853.84;;;13.63;82.49
19112;BME280;9688;51.906;8.376;2022-09-27T12:26:50;98840.94;;;13.70;82.70
19112;BME280;9688;51.906;8.376;2022-09-27T12:29:57;98844.41;;;13.81;82.51
19112;BME280;9688;51.906;8.376;2022-09-27T12:33:07;98844.75;;;13.88;82.60
19112;BME280;9688;51.906;8.376;2022-09-27T12:36:17;98844.28;;;13.94;82.38
19112;BME280;9688;51.906;8.376;2022-09-27T12:39:32;98836.41;;;13.93;82.03
19112;BME280;9688;51.906;8.376;2022-09-27T12:42:45;98841.13;;;13.89;82.16
19112;BME280;9688;51.906;8.376;2022-09-27T12:46:01;98837.63;;;14.00;81.58
19112;BME280;9688;51.906;8.376;2022-09-27T12:49:12;98840.13;;;14.01;81.45
19112;BME280;9688;51.906;8.376;2022-09-27T12:52:22;98838.28;;;14.24;80.84
19112;BME280;9688;51.906;8.376;2022-09-27T12:55:46;98841.75;;;14.57;79.91
19112;BME280;9688;51.906;8.376;2022-09-27T13:02:40;98836.16;;;14.71;78.55
19112;BME280;9688;51.906;8.376;2022-09-27T13:06:09;98838.66;;;14.73;78.29
19112;BME280;9688;51.906;8.376;2022-09-27T13:09:38;98830.56;;;14.75;77.72
19112;BME280;9688;51.906;8.376;2022-09-27T13:12:52;98832.56;;;14.82;77.32
19112;BME280;9688;51.906;8.376;2022-09-27T13:15:59;98822.31;;;14.99;76.75
19112;BME280;9688;51.906;8.376;2022-09-27T13:19:04;98827.63;;;14.99;76.60
19112;BME280;9688;51.906;8.376;2022-09-27T13:22:37;98827.88;;;14.95;76.59
19112;BME280;9688;51.906;8.376;2022-09-27T13:25:47;98822.13;;;14.90;76.29
19112;BME280;9688;51.906;8.376;2022-09-27T13:29:00;98832.16;;;14.66;75.91
19112;BME280;9688;51.906;8.376;2022-09-27T13:32:18;98842.03;;;14.43;76.02
19112;BME280;9688;51.906;8.376;2022-09-27T13:35:25;98850.44;;;14.38;76.53
19112;BME280;9688;51.906;8.376;2022-09-27T13:38:30;98847.03;;;14.36;76.92
19112;BME280;9688;51.906;8.376;2022-09-27T13:41:52;98835.09;;;14.31;76.09
19112;BME280;9688;51.906;8.376;2022-09-27T13:45:16;98843.47;;;14.15;76.60
19112;BME280;9688;51.906;8.376;2022-09-27T13:48:27;98827.44;;;14.16;76.05
19112;BME280;9688;51.906;8.376;2022-09-27T13:51:40;98842.03;;;14.22;75.89
19112;BME280;9688;51.906;8.376;2022-09-27T13:54:52;98844.59;;;14.44;75.56
19112;BME280;9688;51.906;8.376;2022-09-27T13:57:59;98831.88;;;14.80;74.07
19112;BME280;9688;51.906;8.376;2022-09-27T14:01:17;98830.56;;;14.95;73.35
19112;BME280;9688;51.906;8.376;2022-09-27T14:04:27;98830.25;;;14.89;73.75
19112;BME280;9688;51.906;8.376;2022-09-27T14:07:37;98831.59;;;14.83;73.35
19112;BME280;9688;51.906;8.376;2022-09-27T14:10:44;98833.09;;;14.76;74.19
19112;BME280;9688;51.906;8.376;2022-09-27T14:13:51;98827.19;;;14.72;73.95
19112;BME280;9688;51.906;8.376;2022-09-27T14:16:59;98832.81;;;14.79;73.66
19112;BME280;9688;51.906;8.376;2022-09-27T14:20:27;98829.78;;;15.05;73.14
19112;BME280;9688;51.906;8.376;2022-09-27T14:23:33;98838.72;;;15.04;73.78
19112;BME280;9688;51.906;8.376;2022-09-27T14:26:38;98836.72;;;14.96;73.63
19112;BME280;9688;51.906;8.376;2022-09-27T14:29:48;98839.38;;;14.96;74.31
19112;BME280;9688;51.906;8.376;2022-09-27T14:32:55;98842.81;;;14.87;74.15
19112;BME280;9688;51.906;8.376;2022-09-27T14:36:05;98838.03;;;14.81;74.38
19112;BME280;9688;51.906;8.376;2022-09-27T14:39:30;98842.06;;;14.75;74.53
19112;BME280;9688;51.906;8.376;2022-09-27T14:42:36;98853.00;;;14.82;74.14
19112;BME280;9688;51.906;8.376;2022-09-27T14:45:41;98839.50;;;14.73;74.25
19112;BME280;9688;51.906;8.376;2022-09-27T14:48:49;98850.09;;;14.64;73.66
19112;BME280;9688;51.906;8.376;2022-09-27T14:51:55;98871.69;;;14.38;73.83
19112;BME280;9688;51.906;8.376;2022-09-27T14:55:07;98867.88;;;14.20;74.61
19112;BME280;9688;51.906;8.376;2022-09-27T14:58:14;98864.25;;;14.10;74.65
19112;BME280;9688;51.906;8.376;2022-09-27T15:01:21;98871.97;;;14.13;74.64
19112;BME280;9688;51.906;8.376;2022-09-27T15:04:28;98874.06;;;14.09;74.45
19112;BME280;9688;51.906;8.376;2022-09-27T15:07:34;98868.41;;;14.02;75.01
19112;BME280;9688;51.906;8.376;2022-09-27T15:10:39;98872.88;;;13.91;75.16
19112;BME280;9688;51.906;8.376;2022-09-27T15:13:45;98874.22;;;13.85;75.28
19112;BME280;9688;51.906;8.376;2022-09-27T15:16:54;98876.03;;;13.84;75.25
19112;BME280;9688;51.906;8.376;2022-09-27T15:20:03;98876.03;;;13.84;75.25
19112;BME280;9688;51.906;8.376;2022-09-27T15:23:25;98879.19;;;13.78;75.52
19112;BME280;9688;51.906;8.376;2022-09-27T15:26:36;98879.19;;;13.67;75.63
19112;BME280;9688;51.906;8.376;2022-09-27T15:29:48;98876.66;;;13.54;76.03
19112;BME280;9688;51.906;8.376;2022-09-27T15:32:54;98878.72;;;13.51;75.92
19112;BME280;9688;51.906;8.376;2022-09-27T15:36:03;98871.22;;;13.45;76.05
19112;BME280;9688;51.906;8.376;2022-09-27T15:39:16;98875.22;;;13.39;76.31
19112;BME280;9688;51.906;8.376;2022-09-27T15:42:21;98888.50;;;13.39;76.00
19112;BME280;9688;51.906;8.376;2022-09-27T15:45:27;98885.34;;;13.34;76.21
19112;BME280;9688;51.906;8.376;2022-09-27T15:48:33;98889.44;;;13.38;75.95
19112;BME280;9688;51.906;8.376;2022-09-27T15:51:42;98887.75;;;13.37;75.73
19112;BME280;9688;51.906;8.376;2022-09-27T15:54:47;98892.31;;;13.35;76.12
19112;BME280;9688;51.906;8.376;2022-09-27T15:57:55;98890.75;;;13.32;76.09
19112;BME280;9688;51.906;8.376;2022-09-27T16:01:04;98886.41;;;13.31;76.39
19112;BME280;9688;51.906;8.376;2022-09-27T16:04:09;98897.28;;;13.28;76.50
19112;BME280;9688;51.906;8.376;2022-09-27T16:07:16;98898.34;;;13.26;76.79
19112;BME280;9688;51.906;8.376;2022-09-27T16:10:23;98900.00;;;13.15;77.14
19112;BME280;9688;51.906;8.376;2022-09-27T16:13:29;98900.56;;;13.08;77.47
19112;BME280;9688;51.906;8.376;2022-09-27T16:16:36;98892.84;;;13.05;77.27
19112;BME280;9688;51.906;8.376;2022-09-27T16:19:45;98902.13;;;12.99;77.34
19112;BME280;9688;51.906;8.376;2022-09-27T16:22:51;98901.00;;;12.90;77.42
19112;BME280;9688;51.906;8.376;2022-09-27T16:25:57;98902.72;;;12.91;77.14
19112;BME280;9688;51.906;8.376;2022-09-27T16:29:02;98904.16;;;12.95;76.76
19112;BME280;9688;51.906;8.376;2022-09-27T16:32:07;98902.59;;;12.93;76.99
19112;BME280;9688;51.906;8.376;2022-09-27T16:35:14;98908.88;;;12.92;77.10
19112;BME280;9688;51.906;8.376;2022-09-27T16:38:20;98900.19;;;12.90;77.08
19112;BME280;9688;51.906;8.376;2022-09-27T16:41:25;98915.34;;;12.88;77.17
19112;BME280;9688;51.906;8.376;2022-09-27T16:44:30;98914.41;;;12.89;77.60
19112;BME280;9688;51.906;8.376;2022-09-27T16:47:36;98912.94;;;12.85;77.42
19112;BME280;9688;51.906;8.376;2022-09-27T16:50:42;98914.75;;;12.84;77.74
19112;BME280;9688;51.906;8.376;2022-09-27T16:54:06;98904.47;;;12.80;77.48
19112;BME280;9688;51.906;8.376;2022-09-27T16:57:11;98899.66;;;12.73;77.59
19112;BME280;9688;51.906;8.376;2022-09-27T17:00:16;98906.47;;;12.65;78.05
19112;BME280;9688;51.906;8.376;2022-09-27T17:03:21;98895.38;;;12.60;78.26
19112;BME280;9688;51.906;8.376;2022-09-27T17:06:27;98908.63;;;12.60;78.83
19112;BME280;9688;51.906;8.376;2022-09-27T17:09:35;98902.72;;;12.56;78.89
19112;BME280;9688;51.906;8.376;2022-09-27T17:12:40;98894.34;;;12.49;79.28